sensor_id;sensor_type;location;lat;lon;timestamp;temperature;humidity
16076;DHT22;8142;48.242;11.644;2023-06-10T00:01:43;17.80;99.90
16076;DHT22;8142;48.242;11.644;2023-06-10T00:04:14;17.80;99.90
16076;DHT22;8142;48.242;11.644;2023-06-10T00:06:40;17.70;99.90
16076;DHT22;8142;48.242;11.644;2023-06-10T00:09:06;17.70;99.90
16076;DHT22;8142;48.242;11.644;2023-06-10T00:11:37;17.70;99.90
16076;DHT22;8142;48.242;11.644;2023-06-10T00:14:03;17.70;99.90
16076;DHT22;8142;48.242;11.644;2023-06-10T00:16:30;17.60;99.90
16076;DHT22;8142;48.242;11.644;2023-06-10T00:18:56;17.60;99.90
16076;DHT22;8142;48.242;11.644;2023-06-10T00:21:27;17.60;99.90
16076;DHT22;8142;48.242;11.644;2023-06-10T00:23:54;17.60;99.90
16076;DHT22;8142;48.242;11.644;2023-06-10T00:26:24;17.60;99.90
16076;DHT22;8142;48.242;11.644;2023-06-10T00:28:50;17.50;99.90
16076;DHT22;8142;48.242;11.644;2023-06-10T00:31:16;17.50;99.90
16076;DHT22;8142;48.242;11.644;2023-06-10T00:33:43;17.40;99.90
16076;DHT22;8142;48.242;11.644;2023-06-10T00:36:08;17.40;99.90
16076;DHT22;8142;48.242;11.644;2023-06-10T00:38:34;17.40;99.90
16076;DHT22;8142;48.242;11.644;2023-06-10T00:41:00;17.30;99.90
16076;DHT22;8142;48.242;11.644;2023-06-10T00:43:26;17.20;99.90
16076;DHT22;8142;48.242;11.644;2023-06-10T00:45:52;17.30;99.90
16076;DHT22;8142;48.242;11.644;2023-06-10T00:48:19;17.30;99.90
16076;DHT22;8142;48.242;11.644;2023-06-10T00:50:46;17.20;99.90
16076;DHT22;8142;48.242;11.644;2023-06-10T00:53:13;17.20;99.90
16076;DHT22;8142;48.242;11.644;2023-06-10T00:55:40;17.10;99.90
16076;DHT22;8142;48.242;11.644;2023-06-10T00:58:06;17.10;99.90
16076;DHT22;8142;48.242;11.644;2023-06-10T01:00:32;17.10;99.90
16076;DHT22;8142;48.242;11.644;2023-06-10T01:02:58;17.00;99.90
16076;DHT22;8142;48.242;11.644;2023-06-10T01:05:24;17.00;99.90
16076;DHT22;8142;48.242;11.644;2023-06-10T01:08:01;17.00;99.90
16076;DHT22;8142;48.242;11.644;2023-06-10T01:10:33;16.90;99.90
16076;DHT22;8142;48.242;11.644;2023-06-10T01:13:06;16.90;99.90
16076;DHT22;8142;48.242;11.644;2023-06-10T01:15:35;16.80;99.90
16076;DHT22;8142;48.242;11.644;2023-06-10T01:18:06;16.80;99.90
16076;DHT22;8142;48.242;11.644;2023-06-10T01:20:35;16.80;99.90
16076;DHT22;8142;48.242;11.644;2023-06-10T01:23:06;16.70;99.90
16076;DHT22;8142;48.242;11.644;2023-06-10T01:25:33;16.70;99.90
16076;DHT22;8142;48.242;11.644;2023-06-10T01:28:33;16.60;99.90
16076;DHT22;8142;48.242;11.644;2023-06-10T01:31:18;16.70;99.90
16076;DHT22;8142;48.242;11.644;2023-06-10T01:33:51;16.60;99.90
16076;DHT22;8142;48.242;11.644;2023-06-10T01:36:18;16.60;99.90
16076;DHT22;8142;48.242;11.644;2023-06-10T01:38:47;16.60;99.90
16076;DHT22;8142;48.242;11.644;2023-06-10T01:41:15;16.60;99.90
16076;DHT22;8142;48.242;11.644;2023-06-10T01:43:43;16.60;99.90
16076;DHT22;8142;48.242;11.644;2023-06-10T01:46:10;16.60;99.90
16076;DHT22;8142;48.242;11.644;2023-06-10T01:48:37;16.50;99.90
16076;DHT22;8142;48.242;11.644;2023-06-10T01:51:04;16.50;99.90
16076;DHT22;8142;48.242;11.644;2023-06-10T01:53:30;16.50;99.90
16076;DHT22;8142;48.242;11.644;2023-06-10T01:55:56;16.50;99.90
16076;DHT22;8142;48.242;11.644;2023-06-10T01:58:22;16.50;99.90
16076;DHT22;8142;48.242;11.644;2023-06-10T02:00:47;16.40;99.90
16076;DHT22;8142;48.242;11.644;2023-06-10T02:03:13;16.40;99.90
16076;DHT22;8142;48.242;11.644;2023-06-10T02:05:39;16.30;99.90
16076;DHT22;8142;48.242;11.644;2023-06-10T02:08:05;16.30;99.90
16076;DHT22;8142;48.242;11.644;2023-06-10T02:10:31;16.30;99.90
16076;DHT22;8142;48.242;11.644;2023-06-10T02:12:57;16.10;99.90
16076;DHT22;8142;48.242;11.644;2023-06-10T02:15:23;16.10;99.90
16076;DHT22;8142;48.242;11.644;2023-06-10T02:17:49;16.00;99.90
16076;DHT22;8142;48.242;11.644;2023-06-10T02:20:16;16.00;99.90
16076;DHT22;8142;48.242;11.644;2023-06-10T02:22:42;16.00;99.90
16076;DHT22;8142;48.242;11.644;2023-06-10T02:25:08;16.00;99.90
16076;DHT22;8142;48.242;11.644;2023-06-10T02:27:34;15.90;99.90
16076;DHT22;8142;48.242;11.644;2023-06-10T02:30:00;15.90;99.90
16076;DHT22;8142;48.242;11.644;2023-06-10T02:32:26;15.90;99.90
16076;DHT22;8142;48.242;11.644;2023-06-10T02:34:52;15.80;99.90
16076;DHT22;8142;48.242;11.644;2023-06-10T02:37:18;15.80;99.90
16076;DHT22;8142;48.242;11.644;2023-06-10T02:39:44;15.70;99.90
16076;DHT22;8142;48.242;11.644;2023-06-10T02:42:11;15.70;99.90
16076;DHT22;8142;48.242;11.644;2023-06-10T02:44:37;15.60;99.90
16076;DHT22;8142;48.242;11.644;2023-06-10T02:47:04;15.60;99.90
16076;DHT22;8142;48.242;11.644;2023-06-10T02:49:30;15.60;99.90
16076;DHT22;8142;48.242;11.644;2023-06-10T02:51:56;15.50;99.90
16076;DHT22;8142;48.242;11.644;2023-06-10T02:54:23;15.50;99.90
16076;DHT22;8142;48.242;11.644;2023-06-10T02:56:50;15.50;99.90
16076;DHT22;8142;48.242;11.644;2023-06-10T02:59:16;15.50;99.90
16076;DHT22;8142;48.242;11.644;2023-06-10T03:01:42;15.50;99.90
16076;DHT22;8142;48.242;11.644;2023-06-10T03:04:08;15.40;99.90
16076;DHT22;8142;48.242;11.644;2023-06-10T03:06:35;15.40;99.90
16076;DHT22;8142;48.242;11.644;2023-06-10T03:09:02;15.40;99.90
16076;DHT22;8142;48.242;11.644;2023-06-10T03:11:33;15.40;99.90
16076;DHT22;8142;48.242;11.644;2023-06-10T03:13:59;15.50;99.90
16076;DHT22;8142;48.242;11.644;2023-06-10T03:16:25;15.40;99.90
16076;DHT22;8142;48.242;11.644;2023-06-10T03:18:51;15.50;99.90
16076;DHT22;8142;48.242;11.644;2023-06-10T03:21:17;15.50;99.90
16076;DHT22;8142;48.242;11.644;2023-06-10T03:23:43;15.50;99.90
16076;DHT22;8142;48.242;11.644;2023-06-10T03:26:09;15.60;99.90
16076;DHT22;8142;48.242;11.644;2023-06-10T03:28:35;15.60;99.90
16076;DHT22;8142;48.242;11.644;2023-06-10T03:31:01;15.60;99.90
16076;DHT22;8142;48.242;11.644;2023-06-10T03:33:27;15.70;99.90
16076;DHT22;8142;48.242;11.644;2023-06-10T03:35:53;15.70;99.90
16076;DHT22;8142;48.242;11.644;2023-06-10T03:38:19;15.70;99.90
16076;DHT22;8142;48.242;11.644;2023-06-10T03:40:45;15.70;99.90
16076;DHT22;8142;48.242;11.644;2023-06-10T03:43:11;15.70;99.90
16076;DHT22;8142;48.242;11.644;2023-06-10T03:45:37;15.60;99.90
16076;DHT22;8142;48.242;11.644;2023-06-10T03:48:03;15.80;99.90
16076;DHT22;8142;48.242;11.644;2023-06-10T03:50:30;15.80;99.90
16076;DHT22;8142;48.242;11.644;2023-06-10T03:52:56;15.80;99.90
16076;DHT22;8142;48.242;11.644;2023-06-10T03:55:22;15.90;99.90
16076;DHT22;8142;48.242;11.644;2023-06-10T03:57:49;15.80;99.90
16076;DHT22;8142;48.242;11.644;2023-06-10T04:00:16;15.80;99.90
16076;DHT22;8142;48.242;11.644;2023-06-10T04:02:43;15.80;99.90
16076;DHT22;8142;48.242;11.644;2023-06-10T04:05:13;15.80;99.90
16076;DHT22;8142;48.242;11.644;2023-06-10T04:07:40;15.70;99.90
16076;DHT22;8142;48.242;11.644;2023-06-10T04:10:08;15.50;99.90
16076;DHT22;8142;48.242;11.644;2023-06-10T04:12:36;15.40;99.90
16076;DHT22;8142;48.242;11.644;2023-06-10T04:15:02;15.40;99.90
16076;DHT22;8142;48.242;11.644;2023-06-10T04:17:29;15.30;99.90
16076;DHT22;8142;48.242;11.644;2023-06-10T04:19:55;15.20;99.90
16076;DHT22;8142;48.242;11.644;2023-06-10T04:22:21;15.20;99.90
16076;DHT22;8142;48.242;11.644;2023-06-10T04:24:48;15.20;99.90
16076;DHT22;8142;48.242;11.644;2023-06-10T04:27:14;15.10;99.90
16076;DHT22;8142;48.242;11.644;2023-06-10T04:29:40;15.10;99.90
16076;DHT22;8142;48.242;11.644;2023-06-10T04:32:06;15.20;99.90
16076;DHT22;8142;48.242;11.644;2023-06-10T04:34:33;15.20;99.90
16076;DHT22;8142;48.242;11.644;2023-06-10T04:36:59;15.30;99.90
16076;DHT22;8142;48.242;11.644;2023-06-10T04:39:25;15.40;99.90
16076;DHT22;8142;48.242;11.644;2023-06-10T04:41:51;15.50;99.90
16076;DHT22;8142;48.242;11.644;2023-06-10T04:44:18;15.50;99.90
16076;DHT22;8142;48.242;11.644;2023-06-10T04:46:44;15.70;99.90
16076;DHT22;8142;48.242;11.644;2023-06-10T04:49:11;15.70;99.90
16076;DHT22;8142;48.242;11.644;2023-06-10T04:51:40;15.90;99.90
16076;DHT22;8142;48.242;11.644;2023-06-10T04:54:06;15.90;99.90
16076;DHT22;8142;48.242;11.644;2023-06-10T04:56:32;16.00;99.90
16076;DHT22;8142;48.242;11.644;2023-06-10T04:58:59;16.00;99.90
16076;DHT22;8142;48.242;11.644;2023-06-10T05:01:25;16.10;99.90
16076;DHT22;8142;48.242;11.644;2023-06-10T05:03:51;16.20;99.90
16076;DHT22;8142;48.242;11.644;2023-06-10T05:06:17;16.20;99.90
16076;DHT22;8142;48.242;11.644;2023-06-10T05:08:43;16.30;99.90
16076;DHT22;8142;48.242;11.644;2023-06-10T05:11:08;16.40;99.90
16076;DHT22;8142;48.242;11.644;2023-06-10T05:13:34;16.50;99.90
16076;DHT22;8142;48.242;11.644;2023-06-10T05:16:00;16.50;99.90
16076;DHT22;8142;48.242;11.644;2023-06-10T05:18:26;16.60;99.90
16076;DHT22;8142;48.242;11.644;2023-06-10T05:20:52;16.60;99.90
16076;DHT22;8142;48.242;11.644;2023-06-10T05:23:20;16.70;99.90
16076;DHT22;8142;48.242;11.644;2023-06-10T05:25:46;16.80;99.90
16076;DHT22;8142;48.242;11.644;2023-06-10T05:28:12;17.00;99.90
16076;DHT22;8142;48.242;11.644;2023-06-10T05:30:38;17.30;99.90
16076;DHT22;8142;48.242;11.644;2023-06-10T05:33:04;17.60;99.90
16076;DHT22;8142;48.242;11.644;2023-06-10T05:35:30;18.00;99.90
16076;DHT22;8142;48.242;11.644;2023-06-10T05:37:56;18.20;99.90
16076;DHT22;8142;48.242;11.644;2023-06-10T05:40:22;18.60;99.90
16076;DHT22;8142;48.242;11.644;2023-06-10T05:42:49;18.90;99.90
16076;DHT22;8142;48.242;11.644;2023-06-10T05:45:15;19.20;99.90
16076;DHT22;8142;48.242;11.644;2023-06-10T05:47:41;19.60;99.90
16076;DHT22;8142;48.242;11.644;2023-06-10T05:50:07;19.80;99.90
16076;DHT22;8142;48.242;11.644;2023-06-10T05:52:35;20.10;99.90
16076;DHT22;8142;48.242;11.644;2023-06-10T05:55:02;20.30;99.90
16076;DHT22;8142;48.242;11.644;2023-06-10T05:57:28;20.60;99.90
16076;DHT22;8142;48.242;11.644;2023-06-10T05:59:54;20.80;99.90
16076;DHT22;8142;48.242;11.644;2023-06-10T06:02:21;21.00;99.90
16076;DHT22;8142;48.242;11.644;2023-06-10T06:04:46;21.10;99.90
16076;DHT22;8142;48.242;11.644;2023-06-10T06:07:12;21.20;99.90
16076;DHT22;8142;48.242;11.644;2023-06-10T06:09:38;21.20;99.90
16076;DHT22;8142;48.242;11.644;2023-06-10T06:12:04;21.20;99.90
16076;DHT22;8142;48.242;11.644;2023-06-10T06:14:32;21.30;99.90
16076;DHT22;8142;48.242;11.644;2023-06-10T06:16:58;21.30;99.90
16076;DHT22;8142;48.242;11.644;2023-06-10T06:19:24;21.30;99.90
16076;DHT22;8142;48.242;11.644;2023-06-10T06:21:49;21.40;99.90
16076;DHT22;8142;48.242;11.644;2023-06-10T06:24:16;21.50;99.90
16076;DHT22;8142;48.242;11.644;2023-06-10T06:26:42;21.60;99.90
16076;DHT22;8142;48.242;11.644;2023-06-10T06:29:08;21.70;99.90
16076;DHT22;8142;48.242;11.644;2023-06-10T06:31:33;21.90;99.90
16076;DHT22;8142;48.242;11.644;2023-06-10T06:33:59;22.00;99.90
16076;DHT22;8142;48.242;11.644;2023-06-10T06:36:25;22.10;99.90
16076;DHT22;8142;48.242;11.644;2023-06-10T06:38:51;22.20;99.90
16076;DHT22;8142;48.242;11.644;2023-06-10T06:41:17;22.30;99.90
16076;DHT22;8142;48.242;11.644;2023-06-10T06:43:46;22.30;99.90
16076;DHT22;8142;48.242;11.644;2023-06-10T06:46:12;22.30;99.90
16076;DHT22;8142;48.242;11.644;2023-06-10T06:48:38;22.40;99.90
16076;DHT22;8142;48.242;11.644;2023-06-10T06:51:04;22.50;99.90
16076;DHT22;8142;48.242;11.644;2023-06-10T06:53:30;22.50;99.90
16076;DHT22;8142;48.242;11.644;2023-06-10T06:55:56;22.60;99.90
16076;DHT22;8142;48.242;11.644;2023-06-10T06:58:22;22.70;99.90
16076;DHT22;8142;48.242;11.644;2023-06-10T07:00:48;22.70;99.90
16076;DHT22;8142;48.242;11.644;2023-06-10T07:03:14;22.80;99.90
16076;DHT22;8142;48.242;11.644;2023-06-10T07:05:41;22.90;99.90
16076;DHT22;8142;48.242;11.644;2023-06-10T07:08:07;23.10;99.90
16076;DHT22;8142;48.242;11.644;2023-06-10T07:10:32;23.10;99.90
16076;DHT22;8142;48.242;11.644;2023-06-10T07:12:58;23.10;99.90
16076;DHT22;8142;48.242;11.644;2023-06-10T07:15:24;23.20;99.90
16076;DHT22;8142;48.242;11.644;2023-06-10T07:17:50;23.30;99.90
16076;DHT22;8142;48.242;11.644;2023-06-10T07:20:19;23.30;99.90
16076;DHT22;8142;48.242;11.644;2023-06-10T07:22:45;23.40;99.90
16076;DHT22;8142;48.242;11.644;2023-06-10T07:25:11;23.50;99.90
16076;DHT22;8142;48.242;11.644;2023-06-10T07:27:37;23.60;99.90
16076;DHT22;8142;48.242;11.644;2023-06-10T07:30:04;23.60;99.90
16076;DHT22;8142;48.242;11.644;2023-06-10T07:32:31;23.60;99.90
16076;DHT22;8142;48.242;11.644;2023-06-10T07:34:57;23.50;99.90
16076;DHT22;8142;48.242;11.644;2023-06-10T07:37:23;23.40;99.90
16076;DHT22;8142;48.242;11.644;2023-06-10T07:39:49;23.20;99.90
16076;DHT22;8142;48.242;11.644;2023-06-10T07:42:15;23.10;99.90
16076;DHT22;8142;48.242;11.644;2023-06-10T07:44:41;23.10;99.90
16076;DHT22;8142;48.242;11.644;2023-06-10T07:47:06;23.10;99.90
16076;DHT22;8142;48.242;11.644;2023-06-10T07:49:32;23.20;99.90
16076;DHT22;8142;48.242;11.644;2023-06-10T07:51:58;23.30;99.90
16076;DHT22;8142;48.242;11.644;2023-06-10T07:54:24;23.50;99.90
16076;DHT22;8142;48.242;11.644;2023-06-10T07:56:50;23.50;99.90
16076;DHT22;8142;48.242;11.644;2023-06-10T07:59:18;23.60;99.90
16076;DHT22;8142;48.242;11.644;2023-06-10T08:01:44;23.70;99.90
16076;DHT22;8142;48.242;11.644;2023-06-10T08:04:11;23.70;99.90
16076;DHT22;8142;48.242;11.644;2023-06-10T08:06:36;23.70;99.90
16076;DHT22;8142;48.242;11.644;2023-06-10T08:09:03;23.80;99.90
16076;DHT22;8142;48.242;11.644;2023-06-10T08:11:29;23.80;99.90
16076;DHT22;8142;48.242;11.644;2023-06-10T08:13:55;23.90;99.90
16076;DHT22;8142;48.242;11.644;2023-06-10T08:16:22;23.90;99.90
16076;DHT22;8142;48.242;11.644;2023-06-10T08:18:47;24.00;99.90
16076;DHT22;8142;48.242;11.644;2023-06-10T08:21:16;24.00;99.90
16076;DHT22;8142;48.242;11.644;2023-06-10T08:23:42;24.00;99.90
16076;DHT22;8142;48.242;11.644;2023-06-10T08:26:09;24.10;99.90
16076;DHT22;8142;48.242;11.644;2023-06-10T08:28:35;24.20;99.90
16076;DHT22;8142;48.242;11.644;2023-06-10T08:31:01;24.20;99.90
16076;DHT22;8142;48.242;11.644;2023-06-10T08:33:27;24.20;99.90
16076;DHT22;8142;48.242;11.644;2023-06-10T08:35:53;24.30;99.90
16076;DHT22;8142;48.242;11.644;2023-06-10T08:38:19;24.20;99.90
16076;DHT22;8142;48.242;11.644;2023-06-10T08:40:45;24.20;99.90
16076;DHT22;8142;48.242;11.644;2023-06-10T08:43:19;24.30;99.90
16076;DHT22;8142;48.242;11.644;2023-06-10T08:45:48;24.40;99.90
16076;DHT22;8142;48.242;11.644;2023-06-10T08:48:17;24.50;99.90
16076;DHT22;8142;48.242;11.644;2023-06-10T08:50:45;24.50;99.90
16076;DHT22;8142;48.242;11.644;2023-06-10T08:53:13;24.50;99.90
16076;DHT22;8142;48.242;11.644;2023-06-10T08:55:42;24.50;99.90
16076;DHT22;8142;48.242;11.644;2023-06-10T08:58:11;24.40;99.90
16076;DHT22;8142;48.242;11.644;2023-06-10T09:00:38;24.20;99.90
16076;DHT22;8142;48.242;11.644;2023-06-10T09:03:05;24.00;99.90
16076;DHT22;8142;48.242;11.644;2023-06-10T09:05:34;23.80;99.90
16076;DHT22;8142;48.242;11.644;2023-06-10T09:08:02;23.60;99.90
16076;DHT22;8142;48.242;11.644;2023-06-10T09:10:28;23.50;99.90
16076;DHT22;8142;48.242;11.644;2023-06-10T09:12:54;23.40;99.90
16076;DHT22;8142;48.242;11.644;2023-06-10T09:15:21;23.30;99.90
16076;DHT22;8142;48.242;11.644;2023-06-10T09:17:47;23.20;99.90
16076;DHT22;8142;48.242;11.644;2023-06-10T09:20:13;23.20;99.90
16076;DHT22;8142;48.242;11.644;2023-06-10T09:22:41;23.10;99.90
16076;DHT22;8142;48.242;11.644;2023-06-10T09:25:10;23.20;99.90
16076;DHT22;8142;48.242;11.644;2023-06-10T09:27:46;23.20;99.90
16076;DHT22;8142;48.242;11.644;2023-06-10T09:30:29;23.20;99.90
16076;DHT22;8142;48.242;11.644;2023-06-10T09:32:56;23.20;99.90
16076;DHT22;8142;48.242;11.644;2023-06-10T09:35:28;23.30;99.90
16076;DHT22;8142;48.242;11.644;2023-06-10T09:37:56;23.30;99.90
16076;DHT22;8142;48.242;11.644;2023-06-10T09:40:22;23.30;99.90
16076;DHT22;8142;48.242;11.644;2023-06-10T09:42:53;23.30;99.90
16076;DHT22;8142;48.242;11.644;2023-06-10T09:45:21;23.30;99.90
16076;DHT22;8142;48.242;11.644;2023-06-10T09:47:51;23.20;99.90
16076;DHT22;8142;48.242;11.644;2023-06-10T09:50:17;23.30;99.90
16076;DHT22;8142;48.242;11.644;2023-06-10T09:52:45;23.30;99.90
16076;DHT22;8142;48.242;11.644;2023-06-10T09:55:11;23.30;99.90
16076;DHT22;8142;48.242;11.644;2023-06-10T09:57:37;23.30;99.90
16076;DHT22;8142;48.242;11.644;2023-06-10T10:00:06;23.30;99.90
16076;DHT22;8142;48.242;11.644;2023-06-10T10:02:47;23.20;99.90
16076;DHT22;8142;48.242;11.644;2023-06-10T10:05:15;23.20;99.90
16076;DHT22;8142;48.242;11.644;2023-06-10T10:07:42;23.20;99.90
16076;DHT22;8142;48.242;11.644;2023-06-10T10:10:08;23.20;99.90
16076;DHT22;8142;48.242;11.644;2023-06-10T10:12:37;23.20;99.90
16076;DHT22;8142;48.242;11.644;2023-06-10T10:15:07;23.20;99.90
16076;DHT22;8142;48.242;11.644;2023-06-10T10:17:35;23.20;99.90
16076;DHT22;8142;48.242;11.644;2023-06-10T10:20:04;23.20;99.90
16076;DHT22;8142;48.242;11.644;2023-06-10T10:22:41;23.30;99.90
16076;DHT22;8142;48.242;11.644;2023-06-10T10:25:13;23.20;99.90
16076;DHT22;8142;48.242;11.644;2023-06-10T10:30:36;23.00;99.90
16076;DHT22;8142;48.242;11.644;2023-06-10T10:33:09;23.00;99.90
16076;DHT22;8142;48.242;11.644;2023-06-10T10:35:41;22.90;99.90
16076;DHT22;8142;48.242;11.644;2023-06-10T10:38:07;22.90;99.90
16076;DHT22;8142;48.242;11.644;2023-06-10T10:40:35;22.90;99.90
16076;DHT22;8142;48.242;11.644;2023-06-10T10:43:02;22.90;99.90
16076;DHT22;8142;48.242;11.644;2023-06-10T10:45:33;22.90;99.90
16076;DHT22;8142;48.242;11.644;2023-06-10T10:48:05;23.00;99.90
16076;DHT22;8142;48.242;11.644;2023-06-10T10:50:34;23.10;99.90
16076;DHT22;8142;48.242;11.644;2023-06-10T10:53:02;23.20;99.90
16076;DHT22;8142;48.242;11.644;2023-06-10T10:55:28;23.20;99.90
16076;DHT22;8142;48.242;11.644;2023-06-10T11:00:28;23.20;99.90
16076;DHT22;8142;48.242;11.644;2023-06-10T11:08:04;23.30;99.90
16076;DHT22;8142;48.242;11.644;2023-06-10T11:10:36;23.30;99.90
16076;DHT22;8142;48.242;11.644;2023-06-10T11:13:14;23.30;99.90
16076;DHT22;8142;48.242;11.644;2023-06-10T11:15:50;23.30;99.90
16076;DHT22;8142;48.242;11.644;2023-06-10T11:18:26;23.40;99.90
16076;DHT22;8142;48.242;11.644;2023-06-10T11:26:31;23.30;99.90
16076;DHT22;8142;48.242;11.644;2023-06-10T11:31:24;23.30;99.90
16076;DHT22;8142;48.242;11.644;2023-06-10T11:36:24;23.20;99.90
16076;DHT22;8142;48.242;11.644;2023-06-10T11:38:56;23.10;99.90
16076;DHT22;8142;48.242;11.644;2023-06-10T11:41:24;23.10;99.90
16076;DHT22;8142;48.242;11.644;2023-06-10T11:43:52;23.10;99.90
16076;DHT22;8142;48.242;11.644;2023-06-10T11:46:18;23.10;99.90
16076;DHT22;8142;48.242;11.644;2023-06-10T11:49:04;23.10;99.90
16076;DHT22;8142;48.242;11.644;2023-06-10T11:51:35;23.10;99.90
16076;DHT22;8142;48.242;11.644;2023-06-10T11:54:02;23.10;99.90
16076;DHT22;8142;48.242;11.644;2023-06-10T11:56:29;23.10;99.90
16076;DHT22;8142;48.242;11.644;2023-06-10T11:59:00;23.20;99.90
16076;DHT22;8142;48.242;11.644;2023-06-10T12:01:37;23.20;99.90
16076;DHT22;8142;48.242;11.644;2023-06-10T12:04:12;23.20;99.90
16076;DHT22;8142;48.242;11.644;2023-06-10T12:06:48;23.20;99.90
16076;DHT22;8142;48.242;11.644;2023-06-10T12:12:06;23.20;99.90
16076;DHT22;8142;48.242;11.644;2023-06-10T12:14:57;23.20;99.90
16076;DHT22;8142;48.242;11.644;2023-06-10T12:17:36;23.30;99.90
16076;DHT22;8142;48.242;11.644;2023-06-10T12:20:07;23.30;99.90
16076;DHT22;8142;48.242;11.644;2023-06-10T12:22:42;23.30;99.90
16076;DHT22;8142;48.242;11.644;2023-06-10T12:25:09;23.40;99.90
16076;DHT22;8142;48.242;11.644;2023-06-10T12:27:35;23.40;99.90
16076;DHT22;8142;48.242;11.644;2023-06-10T12:30:04;23.40;99.90
16076;DHT22;8142;48.242;11.644;2023-06-10T12:32:45;23.40;99.90
16076;DHT22;8142;48.242;11.644;2023-06-10T12:35:12;23.40;99.90
16076;DHT22;8142;48.242;11.644;2023-06-10T12:37:39;23.40;99.90
16076;DHT22;8142;48.242;11.644;2023-06-10T12:40:06;23.50;99.90
16076;DHT22;8142;48.242;11.644;2023-06-10T12:42:35;23.50;99.90
16076;DHT22;8142;48.242;11.644;2023-06-10T12:45:02;23.50;99.90
16076;DHT22;8142;48.242;11.644;2023-06-10T12:47:36;23.50;99.90
16076;DHT22;8142;48.242;11.644;2023-06-10T12:50:05;23.40;99.90
16076;DHT22;8142;48.242;11.644;2023-06-10T12:52:32;23.40;99.90
16076;DHT22;8142;48.242;11.644;2023-06-10T12:54:58;23.40;99.90
16076;DHT22;8142;48.242;11.644;2023-06-10T12:57:24;23.40;99.90
16076;DHT22;8142;48.242;11.644;2023-06-10T12:59:50;23.40;99.90
16076;DHT22;8142;48.242;11.644;2023-06-10T13:02:20;23.40;99.90
16076;DHT22;8142;48.242;11.644;2023-06-10T13:04:50;23.30;99.90
16076;DHT22;8142;48.242;11.644;2023-06-10T13:07:16;23.40;99.90
16076;DHT22;8142;48.242;11.644;2023-06-10T13:09:43;23.40;99.90
16076;DHT22;8142;48.242;11.644;2023-06-10T13:12:09;23.40;99.90
16076;DHT22;8142;48.242;11.644;2023-06-10T13:14:36;23.40;99.90
16076;DHT22;8142;48.242;11.644;2023-06-10T13:17:06;23.40;99.90
16076;DHT22;8142;48.242;11.644;2023-06-10T13:19:33;23.40;99.90
16076;DHT22;8142;48.242;11.644;2023-06-10T13:21:58;23.40;99.90
16076;DHT22;8142;48.242;11.644;2023-06-10T13:24:24;23.40;99.90
16076;DHT22;8142;48.242;11.644;2023-06-10T13:26:50;23.40;99.90
16076;DHT22;8142;48.242;11.644;2023-06-10T13:29:16;23.40;99.90
16076;DHT22;8142;48.242;11.644;2023-06-10T13:31:42;23.40;99.90
16076;DHT22;8142;48.242;11.644;2023-06-10T13:34:08;23.40;99.90
16076;DHT22;8142;48.242;11.644;2023-06-10T13:36:34;23.40;99.90
16076;DHT22;8142;48.242;11.644;2023-06-10T13:39:00;23.40;99.90
16076;DHT22;8142;48.242;11.644;2023-06-10T13:41:26;23.30;99.90
16076;DHT22;8142;48.242;11.644;2023-06-10T13:43:54;23.30;99.90
16076;DHT22;8142;48.242;11.644;2023-06-10T13:46:21;23.20;99.90
16076;DHT22;8142;48.242;11.644;2023-06-10T13:48:48;23.10;99.90
16076;DHT22;8142;48.242;11.644;2023-06-10T13:51:13;23.10;99.90
16076;DHT22;8142;48.242;11.644;2023-06-10T13:53:39;23.00;99.90
16076;DHT22;8142;48.242;11.644;2023-06-10T13:56:05;23.00;99.90
16076;DHT22;8142;48.242;11.644;2023-06-10T13:58:31;23.00;99.90
16076;DHT22;8142;48.242;11.644;2023-06-10T14:00:57;23.00;99.90
16076;DHT22;8142;48.242;11.644;2023-06-10T14:03:24;23.00;99.90
16076;DHT22;8142;48.242;11.644;2023-06-10T14:05:50;22.90;99.90
16076;DHT22;8142;48.242;11.644;2023-06-10T14:08:16;23.00;99.90
16076;DHT22;8142;48.242;11.644;2023-06-10T14:10:43;23.00;99.90
16076;DHT22;8142;48.242;11.644;2023-06-10T14:13:08;23.00;99.90
16076;DHT22;8142;48.242;11.644;2023-06-10T14:15:34;23.00;99.90
16076;DHT22;8142;48.242;11.644;2023-06-10T14:18:01;23.00;99.90
16076;DHT22;8142;48.242;11.644;2023-06-10T14:20:27;23.00;99.90
16076;DHT22;8142;48.242;11.644;2023-06-10T14:22:57;23.00;99.90
16076;DHT22;8142;48.242;11.644;2023-06-10T14:25:24;22.90;99.90
16076;DHT22;8142;48.242;11.644;2023-06-10T14:27:50;22.90;99.90
16076;DHT22;8142;48.242;11.644;2023-06-10T14:30:16;22.90;99.90
16076;DHT22;8142;48.242;11.644;2023-06-10T14:32:42;23.00;99.90
16076;DHT22;8142;48.242;11.644;2023-06-10T14:35:09;23.00;99.90
16076;DHT22;8142;48.242;11.644;2023-06-10T14:37:35;23.00;99.90
16076;DHT22;8142;48.242;11.644;2023-06-10T14:40:03;23.00;99.90
16076;DHT22;8142;48.242;11.644;2023-06-10T14:42:29;23.00;99.90
16076;DHT22;8142;48.242;11.644;2023-06-10T14:44:55;23.10;99.90
16076;DHT22;8142;48.242;11.644;2023-06-10T14:47:21;23.00;99.90
16076;DHT22;8142;48.242;11.644;2023-06-10T14:49:47;23.20;99.90
16076;DHT22;8142;48.242;11.644;2023-06-10T14:52:13;23.20;99.90
16076;DHT22;8142;48.242;11.644;2023-06-10T14:54:39;23.20;99.90
16076;DHT22;8142;48.242;11.644;2023-06-10T14:57:05;23.30;99.90
16076;DHT22;8142;48.242;11.644;2023-06-10T14:59:31;23.40;99.90
16076;DHT22;8142;48.242;11.644;2023-06-10T15:01:57;23.50;99.90
16076;DHT22;8142;48.242;11.644;2023-06-10T15:04:25;23.50;99.90
16076;DHT22;8142;48.242;11.644;2023-06-10T15:06:51;23.60;99.90
16076;DHT22;8142;48.242;11.644;2023-06-10T15:09:17;23.60;99.90
16076;DHT22;8142;48.242;11.644;2023-06-10T15:11:43;23.60;99.90
16076;DHT22;8142;48.242;11.644;2023-06-10T15:14:09;23.60;99.90
16076;DHT22;8142;48.242;11.644;2023-06-10T15:16:35;23.70;99.90
16076;DHT22;8142;48.242;11.644;2023-06-10T15:19:01;23.70;99.90
16076;DHT22;8142;48.242;11.644;2023-06-10T15:21:26;23.70;99.90
16076;DHT22;8142;48.242;11.644;2023-06-10T15:23:52;23.70;99.90
16076;DHT22;8142;48.242;11.644;2023-06-10T15:26:19;23.70;99.90
16076;DHT22;8142;48.242;11.644;2023-06-10T15:28:45;23.70;99.90
16076;DHT22;8142;48.242;11.644;2023-06-10T15:31:11;23.60;99.90
16076;DHT22;8142;48.242;11.644;2023-06-10T15:33:37;23.60;99.90
16076;DHT22;8142;48.242;11.644;2023-06-10T15:36:03;23.60;99.90
16076;DHT22;8142;48.242;11.644;2023-06-10T15:38:30;23.60;99.90
16076;DHT22;8142;48.242;11.644;2023-06-10T15:40:56;23.50;99.90
16076;DHT22;8142;48.242;11.644;2023-06-10T15:43:22;23.50;99.90
16076;DHT22;8142;48.242;11.644;2023-06-10T15:45:47;23.50;99.90
16076;DHT22;8142;48.242;11.644;2023-06-10T15:48:13;23.50;99.90
16076;DHT22;8142;48.242;11.644;2023-06-10T15:50:39;23.50;99.90
16076;DHT22;8142;48.242;11.644;2023-06-10T15:53:05;23.50;99.90
16076;DHT22;8142;48.242;11.644;2023-06-10T15:55:31;23.50;99.90